Nearby METAR Reports

 

KRNT - Renton, Washington, USA
Distance from station: NNW 3mi, 4km
Updated: Tue, 19-Oct-2021 3:53am PDT
Overcast
Overcast
 Wind from calm
Wind: Calm
Temperature: 48°F , 9°C
Dew Point: 45°F , 7°C
Humidity: 87%
Barometer: 29.94 inHg , 1013.9 hPa
Clouds: Overcast
Visibility: 10 miles , 16 km
Cloud details: Overcast 4100 ft
2021/10/19 10:53 KRNT 191053Z AUTO 00000KT 10SM OVC041 09/07 A2994 RMK AO2 SLP143 T00940072
KSEA - Seattle/Metro, Washington, USA
Distance from station: W 5mi, 9km
Updated: Tue, 19-Oct-2021 3:53am PDT
Overcast
Overcast
 Wind from ESE
Wind: ESE 7 mph , 11 km/h
Temperature: 48°F , 9°C
Wind Chill: 45°F , 7°C
Dew Point: 45°F , 7°C
Humidity: 87%
Barometer: 29.93 inHg , 1013.5 hPa
Clouds: Overcast
Visibility: 10 miles , 16 km
Cloud details: Overcast 3600 ft
2021/10/19 10:53 KSEA 191053Z 11006KT 10SM OVC036 09/07 A2993 RMK AO2 SLP144 T00890072
KBFI - Seattle/Boeing, Washington, USA
Distance from station: NW 8mi, 13km
Updated: Tue, 19-Oct-2021 3:53am PDT
Mostly cloudy
Mostly cloudy
 Wind from calm
Wind: Calm
Temperature: 48°F , 9°C
Dew Point: 46°F , 8°C
Humidity: 94%
Barometer: 29.94 inHg , 1013.9 hPa
Clouds: Mostly cloudy
Visibility: 10 miles , 16 km
Cloud details: Mostly cloudy 4100 ft
2021/10/19 10:53 KBFI 191053Z 00000KT 10SM BKN041 09/08 A2994 RMK AO2 SLP138 T00890078
 
KTIW - Tacoma, Washington, USA
Distance from station: SW 22mi, 36km
Updated: Tue, 19-Oct-2021 3:53am PDT
Clear
Clear
 Wind from calm
Wind: Calm
Temperature: 45°F , 7°C
Dew Point: 45°F , 7°C
Humidity: 100%
Barometer: 29.94 inHg , 1013.9 hPa
Clouds: Clear
Visibility: 9 miles , 14 km
2021/10/19 10:53 KTIW 191053Z AUTO 00000KT 9SM CLR 07/07 A2994 RMK AO2 SLP140 T00720072
KPLU - Puyallup/Thun, Washington, USA
Distance from station: S 25mi, 41km
Updated: Tue, 19-Oct-2021 4:15am PDT
Mist, Clear
Mist, Clear
 Wind from calm
Wind: Calm
Temperature: 45°F , 7°C
Dew Point: 45°F , 7°C
Humidity: 100%
Barometer: 29.93 inHg , 1013.5 hPa
Summary: Mist
Clouds: Clear
Visibility: 4 miles , 6 km
2021/10/19 11:15 KPLU 191115Z AUTO 00000KT 4SM BR CLR 07/07 A2993 RMK AO2
KPWT - Bremerton Ntnl, Washington, USA
Distance from station: W 26mi, 41km
Updated: Tue, 19-Oct-2021 4:20am PDT
Mist, Clear
Mist, Clear
 Wind from calm
Wind: Calm
Temperature: 37°F , 3°C
Dew Point: 37°F , 3°C
Humidity: 100%
Barometer: 29.93 inHg , 1013.5 hPa
Summary: Mist
Clouds: Clear
Visibility: 2 1/2 miles , 4 km
2021/10/19 11:20 KPWT 191120Z AUTO 00000KT 2 1/2SM BR CLR 03/03 A2993 RMK AO2
 
KTCM - Tacoma/Mc Chord, Washington, USA
Distance from station: SSW 27mi, 43km
Updated: Tue, 19-Oct-2021 4:13am PDT
Mist, Clear
Mist, Clear
 Wind from calm
Wind: Calm
Temperature: 39°F , 4°C
Dew Point: 39°F , 4°C
Humidity: 100%
Barometer: 29.92 inHg , 1013.2 hPa
Summary: Mist
Clouds: Clear
Visibility: 3 miles , 5 km
2021/10/19 11:13 KTCM 191113Z AUTO 00000KT 3SM BR CLR 04/04 A2992 RMK AO2 VIS 1 1/8 RWY16 VIS 1 7/8 RWY16/34 SLP137 $
KPAE - Everett, Washington, USA
Distance from station: N 32mi, 51km
Updated: Tue, 19-Oct-2021 3:53am PDT
Few Clouds
Few Clouds
 Wind from ESE
Wind: ESE 5 mph , 7 km/h
Temperature: 46°F , 8°C
Wind Chill: 44°F , 7°C
Dew Point: 43°F , 6°C
Humidity: 87%
Barometer: 29.93 inHg , 1013.5 hPa
Clouds: Few Clouds
Visibility: 10 miles , 16 km
Cloud details: Few Clouds 3700 ft
2021/10/19 10:53 KPAE 191053Z AUTO 11004KT 10SM FEW037 08/06 A2993 RMK AO2 SLP138 T00830061
KGRF - Fort Lewis/Gray, Washington, USA
Distance from station: SSW 32mi, 52km
Updated: Tue, 19-Oct-2021 3:58am PDT
Mist, Clear
Mist, Clear
 Wind from calm
Wind: Calm
Temperature: 39°F , 4°C
Dew Point: 37°F , 3°C
Humidity: 93%
Barometer: 29.93 inHg , 1013.5 hPa
Summary: Mist
Clouds: Clear
Visibility: 5 miles , 8 km
2021/10/19 10:58 KGRF 191058Z AUTO 00000KT 5SM BR CLR 04/03 A2993 RMK AO2 SLP140 T00410031 $
 
KSMP - Stampede Pass, Washington, USA
Distance from station: ESE 42mi, 68km
Updated: Tue, 19-Oct-2021 4:04am PDT
Mist, Overcast
Mist, Overcast
 Wind from calm
Wind: Calm
Temperature: 36°F , 2°C
Dew Point: 34°F , 1°C
Humidity: 93%
Barometer: 29.89 inHg , 1012.2 hPa
Summary: Mist
Clouds: Overcast
Visibility: 1 mile , 2 km
Cloud details: Overcast 200 ft
2021/10/19 11:04 KSMP 191104Z AUTO 00000KT 1SM BR VV002 02/01 A2989 RMK AO2 T00220011
KSHN - Shelton, Washington, USA
Distance from station: WSW 46mi, 75km
Updated: Tue, 19-Oct-2021 3:53am PDT
Fog, Overcast
Fog, Overcast
 Wind from calm
Wind: Calm
Temperature: 37°F , 3°C
Dew Point: 37°F , 3°C
Humidity: 100%
Barometer: 29.91 inHg , 1012.9 hPa
Summary: Fog
Clouds: Overcast
Visibility: 1/2 mile , 0.8 km
Cloud details: Overcast 200 ft
2021/10/19 10:53 KSHN 191053Z AUTO 00000KT 1/2SM FG VV002 03/03 A2991 RMK AO2 SLP132 T00330028
KOLM - Olympia, Washington, USA
Distance from station: SW 47mi, 76km
Updated: Tue, 19-Oct-2021 4:02am PDT
Fog, Overcast
Fog, Overcast
 Wind from calm
Wind: Calm
Temperature: 37°F , 3°C
Dew Point: 37°F , 3°C
Humidity: 100%
Barometer: 29.93 inHg , 1013.5 hPa
Summary: Fog
Clouds: Overcast
Visibility: 1/4 mile , 0.4 km
Cloud details: Overcast 100 ft
2021/10/19 11:02 KOLM 191102Z AUTO 00000KT 1/4SM FG VV001 03/03 A2993 RMK AO2 T00330033
 
KAWO - Arlington Muni, Washington, USA
Distance from station: N 49mi, 78km
Updated: Tue, 19-Oct-2021 3:56am PDT
Overcast
Overcast
 Wind from calm
Wind: Calm
Temperature: 45°F , 7°C
Dew Point: 45°F , 7°C
Humidity: 100%
Barometer: 29.94 inHg , 1013.9 hPa
Clouds: Overcast
Visibility: 10 miles , 16 km
Cloud details: Overcast 4000 ft
2021/10/19 10:56 KAWO 191056Z AUTO 00000KT 10SM OVC040 07/07 A2994 RMK AO2 SLP144 T00720067 PNO $
K0S9 - Port Townsend, Washington, USA
Distance from station: NW 50mi, 80km
Updated: Tue, 19-Oct-2021 4:55am PDT
unable to load K0S9 data RC=404
unable to load K0S9 data RC=404